createdAt,value
2016-10-09T00:00:18.375Z,0
2016-10-09T00:01:18.368Z,0
2016-10-09T00:02:18.387Z,0
2016-10-09T00:03:18.327Z,0
2016-10-09T00:04:18.534Z,0
2016-10-09T00:05:18.309Z,0
2016-10-09T00:06:18.390Z,0
2016-10-09T00:07:18.357Z,0
2016-10-09T00:08:18.368Z,0
2016-10-09T00:09:18.425Z,0
2016-10-09T00:10:18.357Z,0
2016-10-09T00:11:18.367Z,0
2016-10-09T00:12:18.371Z,0
2016-10-09T00:13:18.376Z,0
2016-10-09T00:14:18.319Z,0
2016-10-09T00:15:18.365Z,0
2016-10-09T00:16:18.351Z,0
2016-10-09T00:17:18.380Z,0
2016-10-09T00:18:18.324Z,0
2016-10-09T00:19:18.390Z,0
2016-10-09T00:20:18.338Z,0
2016-10-09T00:21:18.300Z,0
2016-10-09T00:22:18.367Z,0
2016-10-09T00:23:18.302Z,0
2016-10-09T00:24:18.293Z,0
2016-10-09T00:25:18.312Z,0
2016-10-09T00:26:18.347Z,0
2016-10-09T00:27:18.328Z,0
2016-10-09T00:28:18.307Z,0
2016-10-09T00:29:18.322Z,0
2016-10-09T00:30:18.331Z,0
2016-10-09T00:31:18.392Z,0
2016-10-09T00:32:18.472Z,0
2016-10-09T00:33:18.391Z,0
2016-10-09T00:34:18.371Z,0
2016-10-09T00:35:18.391Z,0
2016-10-09T00:36:18.284Z,0
2016-10-09T00:37:18.372Z,0
2016-10-09T00:38:18.309Z,0
2016-10-09T00:39:18.345Z,0
2016-10-09T00:40:18.322Z,0
2016-10-09T00:41:18.417Z,0
2016-10-09T00:42:18.350Z,0
2016-10-09T00:43:18.321Z,0
2016-10-09T00:44:18.408Z,0
2016-10-09T00:45:18.334Z,0
2016-10-09T00:46:18.385Z,0
2016-10-09T00:47:18.399Z,0
2016-10-09T00:48:18.390Z,0
2016-10-09T00:49:18.353Z,0
2016-10-09T00:50:18.380Z,0
2016-10-09T00:51:18.412Z,0
2016-10-09T00:52:18.385Z,0
2016-10-09T00:53:18.355Z,0
2016-10-09T00:54:18.393Z,0
2016-10-09T00:55:18.392Z,0
2016-10-09T00:56:18.492Z,0
2016-10-09T00:57:18.389Z,0
2016-10-09T00:58:18.424Z,0
2016-10-09T00:59:18.395Z,0
2016-10-09T01:00:18.382Z,0
2016-10-09T01:01:18.408Z,0
2016-10-09T01:02:18.419Z,0
2016-10-09T01:03:18.420Z,0
2016-10-09T01:04:18.404Z,0
2016-10-09T01:05:18.373Z,0
2016-10-09T01:06:18.368Z,0
2016-10-09T01:07:18.446Z,0
2016-10-09T01:08:18.364Z,0
2016-10-09T01:09:18.364Z,0
2016-10-09T01:10:18.420Z,0
2016-10-09T01:11:18.356Z,0
2016-10-09T01:12:18.433Z,0
2016-10-09T01:13:18.376Z,0
2016-10-09T01:14:18.425Z,0
2016-10-09T01:15:18.373Z,0
2016-10-09T01:16:18.427Z,0
2016-10-09T01:17:18.412Z,0
2016-10-09T01:18:18.457Z,0
2016-10-09T01:19:18.371Z,0
2016-10-09T01:20:18.402Z,0
2016-10-09T01:21:18.419Z,0
2016-10-09T01:22:18.371Z,0
2016-10-09T01:23:18.385Z,0
2016-10-09T01:24:18.404Z,0
2016-10-09T01:25:18.425Z,0
2016-10-09T01:26:18.497Z,0
2016-10-09T01:27:18.408Z,0
2016-10-09T01:28:18.409Z,0
2016-10-09T01:29:18.382Z,0
2016-10-09T01:30:18.339Z,0
2016-10-09T01:31:18.390Z,0
2016-10-09T01:32:18.494Z,0
2016-10-09T01:33:18.351Z,0
2016-10-09T01:34:18.336Z,0
2016-10-09T01:35:18.368Z,0
2016-10-09T01:36:18.415Z,0
2016-10-09T01:37:18.408Z,0
2016-10-09T01:38:18.366Z,0
2016-10-09T01:39:18.393Z,0
2016-10-09T01:40:18.379Z,0
2016-10-09T01:41:18.473Z,0
2016-10-09T01:42:18.453Z,0
2016-10-09T01:43:18.408Z,0
2016-10-09T01:44:18.413Z,0
2016-10-09T01:45:18.386Z,0
2016-10-09T01:46:18.406Z,0
2016-10-09T01:47:18.411Z,0
2016-10-09T01:48:18.411Z,0
2016-10-09T01:49:18.371Z,0
2016-10-09T01:50:18.437Z,0
2016-10-09T01:51:18.391Z,0
2016-10-09T01:52:18.415Z,0
2016-10-09T01:53:18.424Z,0
2016-10-09T01:54:18.405Z,0
2016-10-09T01:55:18.472Z,0
2016-10-09T01:56:18.389Z,0
2016-10-09T01:57:18.378Z,0
2016-10-09T01:58:18.403Z,0
2016-10-09T01:59:18.380Z,0
2016-10-09T02:00:18.396Z,0
2016-10-09T02:01:18.435Z,0
2016-10-09T02:02:18.431Z,0
2016-10-09T02:03:18.387Z,0
2016-10-09T02:04:18.413Z,0
2016-10-09T02:05:18.460Z,0
2016-10-09T02:06:18.491Z,0
2016-10-09T02:07:18.453Z,0
2016-10-09T02:08:18.377Z,0
2016-10-09T02:09:18.395Z,0
2016-10-09T02:10:18.391Z,0
2016-10-09T02:11:18.428Z,0
2016-10-09T02:12:18.406Z,0
2016-10-09T02:13:18.431Z,0
2016-10-09T02:14:18.389Z,0
2016-10-09T02:15:18.436Z,0
2016-10-09T02:16:18.408Z,0
2016-10-09T02:17:18.446Z,0
2016-10-09T02:18:18.470Z,0
2016-10-09T02:19:18.427Z,0
2016-10-09T02:20:18.411Z,0
2016-10-09T02:21:18.430Z,0
2016-10-09T02:22:18.395Z,0
2016-10-09T02:23:18.460Z,0
2016-10-09T02:24:18.445Z,0
2016-10-09T02:25:18.400Z,0
2016-10-09T02:26:18.404Z,0
2016-10-09T02:27:18.392Z,0
2016-10-09T02:28:18.386Z,0
2016-10-09T02:29:18.436Z,0
2016-10-09T02:30:18.400Z,0
2016-10-09T02:31:18.436Z,0
2016-10-09T02:32:18.455Z,0
2016-10-09T02:33:18.417Z,0
2016-10-09T02:34:18.426Z,0
2016-10-09T02:35:19.220Z,0
2016-10-09T02:36:18.391Z,0
2016-10-09T02:37:18.398Z,0
2016-10-09T02:38:18.427Z,0
2016-10-09T02:39:18.458Z,0
2016-10-09T02:40:18.419Z,0
2016-10-09T02:41:18.427Z,0
2016-10-09T02:42:18.419Z,0
2016-10-09T02:43:18.432Z,0
2016-10-09T02:44:18.480Z,0
2016-10-09T02:45:18.413Z,0
2016-10-09T02:46:18.507Z,0
2016-10-09T02:47:18.483Z,0
2016-10-09T02:48:18.478Z,0
2016-10-09T02:49:18.452Z,0
2016-10-09T02:50:18.426Z,0
2016-10-09T02:51:18.435Z,0
2016-10-09T02:52:18.451Z,0
2016-10-09T02:53:18.423Z,0
2016-10-09T02:54:18.404Z,0
2016-10-09T02:55:18.442Z,0
2016-10-09T02:56:18.461Z,0
2016-10-09T02:57:18.448Z,0
2016-10-09T02:58:18.484Z,0
2016-10-09T02:59:18.475Z,0
2016-10-09T03:00:18.495Z,0
2016-10-09T03:01:18.497Z,0
2016-10-09T03:02:18.481Z,0
2016-10-09T03:03:18.490Z,0
2016-10-09T03:04:18.412Z,0
2016-10-09T03:05:18.391Z,0
2016-10-09T03:06:18.440Z,0
2016-10-09T03:07:18.447Z,0
2016-10-09T03:08:18.379Z,0
2016-10-09T03:09:18.468Z,0
2016-10-09T03:10:18.438Z,0
2016-10-09T03:11:18.466Z,0
2016-10-09T03:12:18.555Z,0
2016-10-09T03:13:18.446Z,0
2016-10-09T03:14:18.420Z,0
2016-10-09T03:15:18.411Z,0
2016-10-09T03:16:18.421Z,0
2016-10-09T03:17:18.443Z,0
2016-10-09T03:18:18.418Z,0
2016-10-09T03:19:18.439Z,0
2016-10-09T03:20:18.440Z,0
2016-10-09T03:21:18.453Z,0
2016-10-09T03:22:18.462Z,0
2016-10-09T03:23:18.451Z,0
2016-10-09T03:24:18.466Z,0
2016-10-09T03:25:18.434Z,0
2016-10-09T03:26:18.409Z,0
2016-10-09T03:27:18.465Z,0
2016-10-09T03:28:18.511Z,0
2016-10-09T03:29:18.443Z,0
2016-10-09T03:30:18.446Z,0
2016-10-09T03:31:18.430Z,0
2016-10-09T03:32:18.462Z,0
2016-10-09T03:33:18.433Z,0
2016-10-09T03:34:18.464Z,0
2016-10-09T03:35:18.414Z,0
2016-10-09T03:36:18.533Z,0
2016-10-09T03:37:18.452Z,0
2016-10-09T03:38:18.464Z,0
2016-10-09T03:39:18.438Z,0
2016-10-09T03:40:18.466Z,0
2016-10-09T03:41:18.455Z,0
2016-10-09T03:42:18.479Z,0
2016-10-09T03:43:18.428Z,0
2016-10-09T03:44:18.494Z,0
2016-10-09T03:45:18.468Z,0
2016-10-09T03:46:18.460Z,0
2016-10-09T03:47:18.481Z,0
2016-10-09T03:48:18.452Z,0
2016-10-09T03:49:18.450Z,0
2016-10-09T03:50:18.463Z,0
2016-10-09T03:51:18.478Z,0
2016-10-09T03:52:18.501Z,0
2016-10-09T03:53:18.729Z,0
2016-10-09T03:54:19.128Z,0
2016-10-09T03:55:18.438Z,0
2016-10-09T03:56:18.479Z,0
2016-10-09T03:57:18.488Z,0
2016-10-09T03:58:18.470Z,0
2016-10-09T03:59:18.476Z,0
2016-10-09T04:00:18.479Z,0
2016-10-09T04:01:18.494Z,0
2016-10-09T04:02:18.582Z,0
2016-10-09T04:03:18.479Z,0
2016-10-09T04:04:18.458Z,0
2016-10-09T04:05:18.460Z,0
2016-10-09T04:06:18.475Z,0
2016-10-09T04:07:18.477Z,0
2016-10-09T04:08:18.488Z,0
2016-10-09T04:09:18.453Z,0
2016-10-09T04:10:18.501Z,0
2016-10-09T04:11:18.464Z,0
2016-10-09T04:12:18.456Z,0
2016-10-09T04:13:18.453Z,0
2016-10-09T04:14:18.496Z,0
2016-10-09T04:15:18.472Z,0
2016-10-09T04:16:18.488Z,0
2016-10-09T04:17:18.485Z,0
2016-10-09T04:18:18.530Z,0
2016-10-09T04:19:18.458Z,0
2016-10-09T04:20:18.458Z,0
2016-10-09T04:21:18.483Z,0
2016-10-09T04:22:18.505Z,0
2016-10-09T04:23:18.507Z,0
2016-10-09T04:24:18.489Z,0
2016-10-09T04:25:18.524Z,0
2016-10-09T04:26:18.640Z,0
2016-10-09T04:27:18.506Z,0
2016-10-09T04:28:18.482Z,0
2016-10-09T04:29:18.502Z,0
2016-10-09T04:30:18.465Z,0
2016-10-09T04:31:18.495Z,0
2016-10-09T04:32:18.484Z,0
2016-10-09T04:33:18.498Z,0
2016-10-09T04:34:18.492Z,0
2016-10-09T04:35:18.521Z,0
2016-10-09T04:36:18.487Z,0
2016-10-09T04:37:18.604Z,0
2016-10-09T04:38:18.524Z,0
2016-10-09T04:39:18.550Z,0
2016-10-09T04:40:18.506Z,0
2016-10-09T04:41:18.513Z,0
2016-10-09T04:42:18.513Z,0
2016-10-09T04:43:18.551Z,0
2016-10-09T04:44:18.534Z,0
2016-10-09T04:45:18.518Z,0
2016-10-09T04:46:18.524Z,0
2016-10-09T04:47:18.553Z,0
2016-10-09T04:48:18.518Z,0
2016-10-09T04:49:18.500Z,0
2016-10-09T04:50:18.525Z,0
2016-10-09T04:51:18.514Z,0
2016-10-09T04:52:18.525Z,0
2016-10-09T04:53:18.560Z,0
2016-10-09T04:54:18.538Z,0
2016-10-09T04:55:18.531Z,0
2016-10-09T04:56:18.573Z,0
2016-10-09T04:57:18.589Z,0
2016-10-09T04:58:18.508Z,0
2016-10-09T04:59:18.523Z,0
2016-10-09T05:00:18.532Z,0
2016-10-09T05:01:18.572Z,0
2016-10-09T05:02:18.605Z,0
2016-10-09T05:03:18.528Z,0
2016-10-09T05:04:18.515Z,0
2016-10-09T05:05:19.200Z,0
2016-10-09T05:06:18.568Z,0
2016-10-09T05:07:18.538Z,0
2016-10-09T05:08:18.495Z,0
2016-10-09T05:09:18.616Z,0
2016-10-09T05:10:18.538Z,0
2016-10-09T05:11:18.499Z,0
2016-10-09T05:12:18.550Z,0
2016-10-09T05:13:18.602Z,0
2016-10-09T05:14:18.502Z,0
2016-10-09T05:15:18.525Z,0
2016-10-09T05:16:18.530Z,0
2016-10-09T05:17:18.627Z,0
2016-10-09T05:18:18.515Z,0
2016-10-09T05:19:18.479Z,0
2016-10-09T05:20:18.517Z,0
2016-10-09T05:21:18.537Z,0
2016-10-09T05:22:18.497Z,0
2016-10-09T05:23:18.580Z,0
2016-10-09T05:24:18.555Z,0
2016-10-09T05:25:18.547Z,0
2016-10-09T05:26:18.520Z,0
2016-10-09T05:27:18.548Z,0
2016-10-09T05:28:18.534Z,0
2016-10-09T05:29:18.692Z,0
2016-10-09T05:30:18.552Z,0
2016-10-09T05:31:18.563Z,0
2016-10-09T05:32:18.507Z,0
2016-10-09T05:33:18.550Z,0
2016-10-09T05:34:18.525Z,0
2016-10-09T05:35:18.513Z,0
2016-10-09T05:36:18.523Z,0
2016-10-09T05:37:18.528Z,0
2016-10-09T05:38:18.563Z,0
2016-10-09T05:39:18.522Z,5
2016-10-09T05:40:18.563Z,5
2016-10-09T05:41:18.583Z,5
2016-10-09T05:42:18.522Z,5
2016-10-09T05:43:18.582Z,5
2016-10-09T05:44:18.544Z,5
2016-10-09T05:45:18.509Z,5
2016-10-09T05:46:18.532Z,5
2016-10-09T05:47:18.637Z,10
2016-10-09T05:48:18.586Z,10
2016-10-09T05:49:18.611Z,10
2016-10-09T05:50:18.599Z,10
2016-10-09T05:51:18.535Z,10
2016-10-09T05:52:18.554Z,10
2016-10-09T05:53:18.523Z,15
2016-10-09T05:54:18.570Z,15
2016-10-09T05:55:18.525Z,15
2016-10-09T05:56:18.577Z,15
2016-10-09T05:57:18.517Z,15
2016-10-09T05:58:18.525Z,20
2016-10-09T05:59:18.797Z,20
2016-10-09T06:00:18.528Z,20
2016-10-09T06:01:18.544Z,20
2016-10-09T06:02:18.575Z,20
2016-10-09T06:03:18.586Z,25
2016-10-09T06:04:18.564Z,25
2016-10-09T06:05:18.557Z,25
2016-10-09T06:06:18.585Z,25
2016-10-09T06:07:18.582Z,25
2016-10-09T06:08:18.666Z,30
2016-10-09T06:09:18.522Z,30
2016-10-09T06:10:18.600Z,30
2016-10-09T06:11:18.564Z,30
2016-10-09T06:12:18.610Z,35
2016-10-09T06:13:18.541Z,35
2016-10-09T06:14:18.575Z,35
2016-10-09T06:15:18.613Z,35
2016-10-09T06:16:18.588Z,35
2016-10-09T06:17:18.595Z,40
2016-10-09T06:18:18.570Z,40
2016-10-09T06:19:18.576Z,40
2016-10-09T06:20:18.618Z,40
2016-10-09T06:21:18.574Z,45
2016-10-09T06:22:18.637Z,45
2016-10-09T06:23:18.549Z,45
2016-10-09T06:24:18.584Z,45
2016-10-09T06:25:18.592Z,50
2016-10-09T06:26:18.564Z,50
2016-10-09T06:27:18.653Z,50
2016-10-09T06:28:18.694Z,50
2016-10-09T06:29:18.631Z,50
2016-10-09T06:30:18.640Z,55
2016-10-09T06:31:18.584Z,55
2016-10-09T06:32:18.621Z,55
2016-10-09T06:33:18.612Z,55
2016-10-09T06:34:18.661Z,55
2016-10-09T06:35:18.615Z,60
2016-10-09T06:36:18.622Z,60
2016-10-09T06:37:18.631Z,60
2016-10-09T06:38:18.662Z,60
2016-10-09T06:39:18.622Z,60
2016-10-09T06:40:18.576Z,60
2016-10-09T06:41:18.653Z,60
2016-10-09T06:42:18.641Z,65
2016-10-09T06:43:18.634Z,65
2016-10-09T06:44:18.629Z,65
2016-10-09T06:45:18.547Z,65
2016-10-09T06:46:19.912Z,65
2016-10-09T06:47:18.724Z,70
2016-10-09T06:48:18.598Z,70
2016-10-09T06:49:18.855Z,70
2016-10-09T06:50:18.638Z,70
2016-10-09T06:51:18.692Z,70
2016-10-09T06:52:18.759Z,70
2016-10-09T06:53:18.750Z,70
2016-10-09T06:54:18.582Z,70
2016-10-09T06:55:18.585Z,75
2016-10-09T06:56:18.990Z,75
2016-10-09T06:57:19.473Z,75
2016-10-09T06:58:18.697Z,75
2016-10-09T06:59:18.698Z,75
2016-10-09T07:00:18.589Z,75
2016-10-09T07:01:18.656Z,75
2016-10-09T07:02:34.886Z,75
2016-10-09T07:04:43.404Z,80
2016-10-09T07:06:22.276Z,80
2016-10-09T07:07:10.701Z,80
2016-10-09T07:07:39.078Z,80
2016-10-09T07:08:39.084Z,80
2016-10-09T07:09:39.105Z,85
2016-10-09T07:10:39.279Z,85
2016-10-09T07:11:39.171Z,85
2016-10-09T07:12:39.097Z,85
2016-10-09T07:13:39.572Z,85
2016-10-09T07:14:39.089Z,90
2016-10-09T07:15:39.121Z,90
2016-10-09T07:16:39.171Z,90
2016-10-09T07:17:39.121Z,90
2016-10-09T07:18:39.670Z,90
2016-10-09T07:19:39.379Z,90
2016-10-09T07:20:39.180Z,90
2016-10-09T07:21:39.105Z,90
2016-10-09T07:22:39.084Z,90
2016-10-09T07:23:39.094Z,90
2016-10-09T07:24:39.079Z,95
2016-10-09T07:25:39.107Z,95
2016-10-09T07:26:39.652Z,95
2016-10-09T07:27:39.120Z,95
2016-10-09T07:28:39.084Z,95
2016-10-09T07:29:39.075Z,95
2016-10-09T07:30:39.139Z,100
2016-10-09T07:31:39.105Z,95
2016-10-09T07:32:39.093Z,95
2016-10-09T07:33:39.114Z,100
2016-10-09T07:34:39.077Z,100
2016-10-09T07:35:39.088Z,100
2016-10-09T07:36:39.149Z,105
2016-10-09T07:37:39.177Z,105
2016-10-09T07:38:39.047Z,105
2016-10-09T07:39:39.068Z,110
2016-10-09T07:40:39.055Z,115
2016-10-09T07:41:39.084Z,120
2016-10-09T07:42:39.117Z,125
2016-10-09T07:43:39.127Z,125
2016-10-09T07:44:39.088Z,120
2016-10-09T07:45:39.098Z,120
2016-10-09T07:46:39.125Z,120
2016-10-09T07:47:39.107Z,115
2016-10-09T07:48:39.148Z,115
2016-10-09T07:49:39.740Z,110
2016-10-09T07:50:39.168Z,110
2016-10-09T07:51:39.132Z,110
2016-10-09T07:52:39.142Z,105
2016-10-09T07:53:39.116Z,105
2016-10-09T07:54:39.295Z,105
2016-10-09T07:55:39.132Z,105
2016-10-09T07:56:39.218Z,105
2016-10-09T07:57:39.161Z,110
2016-10-09T07:58:39.213Z,110
2016-10-09T07:59:39.308Z,115
2016-10-09T08:00:39.091Z,120
2016-10-09T08:01:39.164Z,120
2016-10-09T08:02:39.123Z,125
2016-10-09T08:03:39.183Z,135
2016-10-09T08:04:39.189Z,145
2016-10-09T08:05:39.538Z,155
2016-10-09T08:06:39.125Z,155
2016-10-09T08:07:39.196Z,155
2016-10-09T08:08:39.125Z,150
2016-10-09T08:09:39.093Z,150
2016-10-09T08:10:39.101Z,145
2016-10-09T08:11:39.094Z,135
2016-10-09T08:12:39.151Z,125
2016-10-09T08:13:39.120Z,125
2016-10-09T08:14:39.151Z,130
2016-10-09T08:15:39.122Z,130
2016-10-09T08:16:39.098Z,130
2016-10-09T08:17:39.132Z,140
2016-10-09T08:18:39.096Z,150
2016-10-09T08:19:39.162Z,155
2016-10-09T08:20:39.177Z,165
2016-10-09T08:21:39.109Z,165
2016-10-09T08:22:39.132Z,175
2016-10-09T08:23:39.122Z,180
2016-10-09T08:24:39.128Z,180
2016-10-09T08:25:39.155Z,180
2016-10-09T08:26:39.198Z,190
2016-10-09T08:27:39.167Z,205
2016-10-09T08:28:39.158Z,210
2016-10-09T08:29:39.139Z,215
2016-10-09T08:30:39.145Z,210
2016-10-09T08:31:39.138Z,210
2016-10-09T08:32:40.028Z,200
2016-10-09T08:33:39.179Z,205
2016-10-09T08:34:39.167Z,205
2016-10-09T08:35:39.213Z,215
2016-10-09T08:36:39.166Z,215
2016-10-09T08:37:39.712Z,220
2016-10-09T08:38:39.154Z,215
2016-10-09T08:39:39.208Z,220
2016-10-09T08:40:39.179Z,220
2016-10-09T08:41:39.134Z,220
2016-10-09T08:42:39.164Z,215
2016-10-09T08:43:39.172Z,210
2016-10-09T08:44:39.132Z,205
2016-10-09T08:45:39.228Z,205
2016-10-09T08:46:39.185Z,205
2016-10-09T08:47:39.237Z,195
2016-10-09T08:48:39.189Z,200
2016-10-09T08:49:39.115Z,200
2016-10-09T08:50:39.158Z,195
2016-10-09T08:51:39.180Z,195
2016-10-09T08:52:39.187Z,190
2016-10-09T08:53:39.164Z,190
2016-10-09T08:54:39.171Z,185
2016-10-09T08:55:39.159Z,180
2016-10-09T08:56:39.139Z,180
2016-10-09T08:57:39.206Z,170
2016-10-09T08:58:39.137Z,160
2016-10-09T08:59:39.143Z,155
2016-10-09T09:00:39.177Z,155
2016-10-09T09:01:39.374Z,160
2016-10-09T09:02:39.217Z,160
2016-10-09T09:03:40.148Z,165
2016-10-09T09:04:39.191Z,170
2016-10-09T09:05:39.268Z,165
2016-10-09T09:06:39.125Z,165
2016-10-09T09:07:39.260Z,175
2016-10-09T09:08:39.227Z,185
2016-10-09T09:09:39.185Z,200
2016-10-09T09:10:39.158Z,215
2016-10-09T09:11:39.150Z,230
2016-10-09T09:12:39.850Z,245
2016-10-09T09:13:39.193Z,255
2016-10-09T09:14:39.166Z,265
2016-10-09T09:15:39.183Z,270
2016-10-09T09:16:39.191Z,265
2016-10-09T09:17:39.263Z,265
2016-10-09T09:18:39.196Z,265
2016-10-09T09:19:39.209Z,265
2016-10-09T09:20:39.201Z,260
2016-10-09T09:21:39.852Z,260
2016-10-09T09:22:39.259Z,260
2016-10-09T09:23:39.195Z,235
2016-10-09T09:24:39.172Z,235
2016-10-09T09:25:39.173Z,230
2016-10-09T09:26:39.271Z,240
2016-10-09T09:27:47.628Z,245
2016-10-09T09:28:40.997Z,245
2016-10-09T09:29:39.190Z,240
2016-10-09T09:30:39.399Z,235
2016-10-09T09:31:39.186Z,230
2016-10-09T09:32:39.151Z,235
2016-10-09T09:33:39.227Z,230
2016-10-09T09:34:39.177Z,230
2016-10-09T09:35:39.160Z,235
2016-10-09T09:36:39.288Z,230
2016-10-09T09:37:39.313Z,230
2016-10-09T09:38:39.290Z,225
2016-10-09T09:39:39.192Z,235
2016-10-09T09:40:39.221Z,230
2016-10-09T09:41:39.196Z,220
2016-10-09T09:42:39.256Z,205
2016-10-09T09:43:39.224Z,195
2016-10-09T09:44:39.240Z,190
2016-10-09T09:45:39.195Z,180
2016-10-09T09:46:39.224Z,170
2016-10-09T09:47:39.251Z,160
2016-10-09T09:48:39.355Z,145
2016-10-09T09:49:39.298Z,135
2016-10-09T09:50:39.285Z,130
2016-10-09T09:51:39.201Z,120
2016-10-09T09:52:39.383Z,115
2016-10-09T09:53:39.324Z,120
2016-10-09T09:54:41.378Z,110
2016-10-09T09:55:39.227Z,110
2016-10-09T09:56:39.276Z,110
2016-10-09T09:57:39.393Z,110
2016-10-09T09:58:40.906Z,110
2016-10-09T09:59:40.388Z,110
2016-10-09T10:00:39.164Z,110
2016-10-09T10:01:39.276Z,110
2016-10-09T10:02:39.217Z,115
2016-10-09T10:03:39.250Z,120
2016-10-09T10:04:39.230Z,120
2016-10-09T10:05:39.285Z,120
2016-10-09T10:06:39.733Z,120
2016-10-09T10:07:39.272Z,120
2016-10-09T10:08:39.223Z,120
2016-10-09T10:09:39.256Z,115
2016-10-09T10:10:39.300Z,115
2016-10-09T10:11:39.290Z,115
2016-10-09T10:12:39.303Z,115
2016-10-09T10:13:39.293Z,115
2016-10-09T10:14:39.322Z,110
2016-10-09T10:15:39.298Z,115
2016-10-09T10:16:39.390Z,115
2016-10-09T10:17:39.327Z,115
2016-10-09T10:18:39.251Z,115
2016-10-09T10:19:41.091Z,115
2016-10-09T10:20:39.274Z,120
2016-10-09T10:21:39.338Z,120
2016-10-09T10:22:39.358Z,120
2016-10-09T10:23:39.798Z,120
2016-10-09T10:24:39.364Z,120
2016-10-09T10:25:39.243Z,115
2016-10-09T10:26:39.325Z,120
2016-10-09T10:27:39.315Z,125
2016-10-09T10:29:00.645Z,130
2016-10-09T10:30:38.225Z,125
2016-10-09T10:31:07.671Z,125
2016-10-09T10:31:56.737Z,125
2016-10-09T10:33:55.194Z,130
2016-10-09T10:35:06.173Z,135
2016-10-09T10:35:29.142Z,135
2016-10-09T10:36:22.513Z,140
2016-10-09T10:37:21.585Z,145
2016-10-09T10:38:21.512Z,150
2016-10-09T10:39:21.547Z,155
2016-10-09T10:40:21.494Z,145
2016-10-09T10:41:21.393Z,145
2016-10-09T10:42:21.376Z,150
2016-10-09T10:43:21.418Z,150
2016-10-09T10:44:21.412Z,150
2016-10-09T10:45:21.611Z,150
2016-10-09T10:46:22.356Z,140
2016-10-09T10:47:21.385Z,140
2016-10-09T10:48:22.040Z,145
2016-10-09T10:49:21.793Z,140
2016-10-09T10:50:21.492Z,135
2016-10-09T10:51:21.843Z,130
2016-10-09T10:52:23.011Z,135
2016-10-09T10:53:22.041Z,145
2016-10-09T10:54:22.233Z,170
2016-10-09T10:55:22.170Z,190
2016-10-09T10:56:21.419Z,205
2016-10-09T10:57:21.411Z,210
2016-10-09T10:58:21.422Z,205
2016-10-09T10:59:21.960Z,205
2016-10-09T11:00:21.477Z,210
2016-10-09T11:01:22.395Z,225
2016-10-09T11:02:22.644Z,235
2016-10-09T11:03:21.520Z,235
2016-10-09T11:04:22.667Z,215
2016-10-09T11:05:31.560Z,195
2016-10-09T11:06:34.478Z,195
2016-10-09T11:07:23.227Z,205
2016-10-09T11:08:23.685Z,220
2016-10-09T11:09:25.672Z,225
2016-10-09T11:10:24.811Z,230
2016-10-09T11:11:22.685Z,240
2016-10-09T11:12:21.471Z,260
2016-10-09T11:13:21.479Z,270
2016-10-09T11:14:22.359Z,280
2016-10-09T11:15:21.383Z,290
2016-10-09T11:16:21.412Z,280
2016-10-09T11:17:21.451Z,265
2016-10-09T11:18:21.401Z,270
2016-10-09T11:19:21.416Z,280
2016-10-09T11:20:21.432Z,285
2016-10-09T11:21:21.403Z,295
2016-10-09T11:22:21.465Z,300
2016-10-09T11:23:21.465Z,300
2016-10-09T11:24:21.494Z,295
2016-10-09T11:25:21.484Z,265
2016-10-09T11:26:21.470Z,240
2016-10-09T11:27:22.436Z,205
2016-10-09T11:28:21.805Z,195
2016-10-09T11:29:21.457Z,190
2016-10-09T11:30:21.477Z,190
2016-10-09T11:31:21.412Z,190
2016-10-09T11:32:22.020Z,190
2016-10-09T11:33:22.986Z,190
2016-10-09T11:34:22.425Z,195
2016-10-09T11:35:22.328Z,200
2016-10-09T11:36:22.697Z,215
2016-10-09T11:37:21.828Z,225
2016-10-09T11:38:21.546Z,230
2016-10-09T11:39:21.444Z,235
2016-10-09T11:40:21.498Z,230
2016-10-09T11:41:21.443Z,225
2016-10-09T11:42:21.468Z,225
2016-10-09T11:43:21.479Z,225
2016-10-09T11:44:21.514Z,235
2016-10-09T11:45:21.559Z,240
2016-10-09T11:46:21.696Z,245
2016-10-09T11:47:21.482Z,245
2016-10-09T11:48:21.560Z,235
2016-10-09T11:49:21.494Z,235
2016-10-09T11:50:21.526Z,235
2016-10-09T11:51:21.889Z,240
2016-10-09T11:52:21.483Z,230
2016-10-09T11:53:22.158Z,230
2016-10-09T11:54:21.764Z,230
2016-10-09T11:55:21.693Z,230
2016-10-09T11:56:21.511Z,230
2016-10-09T11:57:21.709Z,235
2016-10-09T11:58:21.520Z,230
2016-10-09T11:59:21.491Z,230
2016-10-09T12:00:21.601Z,220
2016-10-09T12:01:21.577Z,215
2016-10-09T12:02:22.410Z,220
2016-10-09T12:03:21.572Z,215
2016-10-09T12:04:22.042Z,215
2016-10-09T12:05:21.491Z,210
2016-10-09T12:06:21.735Z,205
2016-10-09T12:07:21.524Z,190
2016-10-09T12:08:21.514Z,185
2016-10-09T12:09:21.521Z,175
2016-10-09T12:10:21.558Z,170
2016-10-09T12:11:21.544Z,165
2016-10-09T12:12:22.271Z,160
2016-10-09T12:13:21.706Z,155
2016-10-09T12:14:21.801Z,150
2016-10-09T12:15:21.554Z,140
2016-10-09T12:16:21.871Z,145
2016-10-09T12:17:21.539Z,145
2016-10-09T12:18:22.161Z,145
2016-10-09T12:19:21.488Z,145
2016-10-09T12:20:21.488Z,135
2016-10-09T12:21:22.374Z,135
2016-10-09T12:22:22.380Z,145
2016-10-09T12:23:22.208Z,150
2016-10-09T12:24:21.514Z,160
2016-10-09T12:25:21.548Z,165
2016-10-09T12:26:26.387Z,180
2016-10-09T12:27:26.230Z,190
2016-10-09T12:28:22.298Z,190
2016-10-09T12:29:21.489Z,195
2016-10-09T12:30:21.494Z,195
2016-10-09T12:31:21.508Z,195
2016-10-09T12:32:21.500Z,195
2016-10-09T12:33:21.563Z,185
2016-10-09T12:34:21.741Z,195
2016-10-09T12:35:21.564Z,200
2016-10-09T12:36:21.523Z,210
2016-10-09T12:37:21.851Z,220
2016-10-09T12:38:21.511Z,225
2016-10-09T12:39:21.534Z,245
2016-10-09T12:40:21.507Z,260
2016-10-09T12:41:21.516Z,265
2016-10-09T12:42:21.547Z,260
2016-10-09T12:43:21.542Z,245
2016-10-09T12:44:21.521Z,240
2016-10-09T12:45:21.517Z,240
2016-10-09T12:46:21.563Z,240
2016-10-09T12:47:21.520Z,230
2016-10-09T12:48:21.520Z,220
2016-10-09T12:49:21.495Z,205
2016-10-09T12:50:24.887Z,190
2016-10-09T12:51:25.393Z,175
2016-10-09T12:52:25.208Z,160
2016-10-09T12:53:24.855Z,150
2016-10-09T12:54:25.505Z,140
2016-10-09T12:55:24.865Z,135
2016-10-09T12:56:24.431Z,135
2016-10-09T12:57:23.379Z,140
2016-10-09T12:58:24.154Z,145
2016-10-09T12:59:26.008Z,150
2016-10-09T13:00:25.627Z,150
2016-10-09T13:01:24.871Z,150
2016-10-09T13:02:24.651Z,150
2016-10-09T13:03:24.440Z,150
2016-10-09T13:04:21.538Z,145
2016-10-09T13:05:21.515Z,140
2016-10-09T13:06:21.535Z,135
2016-10-09T13:07:21.529Z,130
2016-10-09T13:08:21.579Z,135
2016-10-09T13:09:21.585Z,135
2016-10-09T13:10:21.473Z,135
2016-10-09T13:11:21.583Z,140
2016-10-09T13:12:21.512Z,145
2016-10-09T13:13:21.499Z,150
2016-10-09T13:14:21.558Z,160
2016-10-09T13:15:25.685Z,160
2016-10-09T13:16:21.781Z,160
2016-10-09T13:17:21.490Z,170
2016-10-09T13:18:21.506Z,185
2016-10-09T13:19:21.887Z,180
2016-10-09T13:20:21.547Z,185
2016-10-09T13:21:21.948Z,185
2016-10-09T13:22:21.858Z,195
2016-10-09T13:23:21.551Z,190
2016-10-09T13:24:21.553Z,190
2016-10-09T13:25:21.578Z,190
2016-10-09T13:26:21.530Z,190
2016-10-09T13:27:21.548Z,180
2016-10-09T13:28:22.021Z,170
2016-10-09T13:29:21.511Z,165
2016-10-09T13:30:21.546Z,155
2016-10-09T13:31:21.530Z,150
2016-10-09T13:32:21.839Z,150
2016-10-09T13:33:21.606Z,155
2016-10-09T13:34:21.731Z,160
2016-10-09T13:35:21.629Z,165
2016-10-09T13:36:21.534Z,170
2016-10-09T13:37:21.527Z,180
2016-10-09T13:38:21.581Z,185
2016-10-09T13:39:21.571Z,190
2016-10-09T13:40:21.606Z,195
2016-10-09T13:41:21.526Z,195
2016-10-09T13:42:21.534Z,195
2016-10-09T13:43:21.559Z,200
2016-10-09T13:44:21.549Z,205
2016-10-09T13:45:23.066Z,205
2016-10-09T13:46:22.045Z,205
2016-10-09T13:47:21.590Z,205
2016-10-09T13:48:21.626Z,210
2016-10-09T13:49:21.562Z,215
2016-10-09T13:50:21.617Z,220
2016-10-09T13:51:21.591Z,225
2016-10-09T13:52:21.624Z,225
2016-10-09T13:53:21.528Z,225
2016-10-09T13:54:21.563Z,225
2016-10-09T13:55:21.585Z,225
2016-10-09T13:56:22.238Z,220
2016-10-09T13:57:21.559Z,210
2016-10-09T13:58:21.591Z,205
2016-10-09T13:59:21.582Z,195
2016-10-09T14:00:22.787Z,190
2016-10-09T14:01:21.796Z,185
2016-10-09T14:02:22.676Z,175
2016-10-09T14:03:21.632Z,165
2016-10-09T14:04:21.598Z,160
2016-10-09T14:05:21.598Z,155
2016-10-09T14:06:22.305Z,155
2016-10-09T14:07:21.932Z,155
2016-10-09T14:08:21.602Z,160
2016-10-09T14:09:21.563Z,165
2016-10-09T14:10:21.598Z,170
2016-10-09T14:11:21.561Z,170
2016-10-09T14:12:21.548Z,170
2016-10-09T14:13:22.260Z,170
2016-10-09T14:14:21.626Z,165
2016-10-09T14:15:21.630Z,160